createdAt,value
2023-02-08T00:00:13.421Z,11.60
2023-02-08T00:02:40.767Z,12.77
2023-02-08T00:05:08.089Z,17.03
2023-02-08T00:07:35.240Z,13.87
2023-02-08T00:10:05.143Z,14.03
2023-02-08T00:12:32.348Z,12.77
2023-02-08T00:14:59.550Z,13.13
2023-02-08T00:17:26.921Z,13.07
2023-02-08T00:19:54.115Z,14.03
2023-02-08T00:22:21.407Z,14.13
2023-02-08T00:24:48.614Z,13.97
2023-02-08T00:27:15.861Z,15.23
2023-02-08T00:29:43.023Z,15.57
2023-02-08T00:32:10.691Z,15.30
2023-02-08T00:34:38.728Z,14.77
2023-02-08T00:37:06.613Z,15.13
2023-02-08T00:39:33.900Z,12.43
2023-02-08T00:42:01.104Z,14.67
2023-02-08T00:44:28.289Z,13.27
2023-02-08T00:46:55.653Z,14.20
2023-02-08T00:49:22.459Z,13.67
2023-02-08T00:51:49.413Z,13.80
2023-02-08T00:54:21.124Z,12.83
2023-02-08T00:56:48.000Z,14.43
2023-02-08T00:59:15.029Z,13.00
2023-02-08T01:01:42.751Z,13.00
2023-02-08T01:04:09.710Z,12.87
2023-02-08T01:06:36.774Z,12.07
2023-02-08T01:09:03.849Z,11.97
2023-02-08T01:11:30.871Z,12.20
2023-02-08T01:13:58.098Z,11.07
2023-02-08T01:16:28.316Z,12.17
2023-02-08T01:18:57.106Z,12.37
2023-02-08T01:21:27.306Z,11.90
2023-02-08T01:23:54.847Z,11.40
2023-02-08T01:26:23.193Z,11.63
2023-02-08T01:28:51.033Z,12.03
2023-02-08T01:31:21.909Z,11.37
2023-02-08T01:33:48.920Z,12.13
2023-02-08T01:36:16.729Z,11.97
2023-02-08T01:38:44.373Z,11.77
2023-02-08T01:41:17.713Z,12.00
2023-02-08T01:43:59.571Z,12.03
2023-02-08T01:46:26.654Z,12.23
2023-02-08T01:48:55.336Z,12.37
2023-02-08T01:51:28.315Z,12.87
2023-02-08T01:53:57.726Z,11.83
2023-02-08T01:56:33.258Z,11.00
2023-02-08T01:59:04.438Z,11.83
2023-02-08T02:01:32.038Z,11.83
2023-02-08T02:04:04.314Z,12.20
2023-02-08T02:06:35.907Z,12.47
2023-02-08T02:09:25.005Z,11.67
2023-02-08T02:11:54.291Z,12.10
2023-02-08T02:14:22.381Z,11.40
2023-02-08T02:16:49.681Z,11.13
2023-02-08T02:20:24.076Z,11.80
2023-02-08T02:23:27.709Z,12.93
2023-02-08T02:26:15.279Z,11.33
2023-02-08T02:28:50.833Z,12.23
2023-02-08T02:31:50.978Z,12.13
2023-02-08T02:34:23.748Z,11.70
2023-02-08T02:37:00.105Z,12.80
2023-02-08T02:39:26.837Z,12.47
2023-02-08T02:42:33.882Z,11.43
2023-02-08T02:45:43.602Z,11.07
2023-02-08T02:48:46.399Z,11.53
2023-02-08T02:51:20.316Z,12.73
2023-02-08T02:54:03.136Z,12.03
2023-02-08T02:56:32.262Z,11.97
2023-02-08T02:59:02.148Z,12.17
2023-02-08T03:01:30.170Z,11.13
2023-02-08T03:03:57.554Z,12.07
2023-02-08T03:07:13.417Z,11.30
2023-02-08T03:09:51.358Z,11.10
2023-02-08T03:12:39.779Z,12.27
2023-02-08T03:15:47.751Z,11.30
2023-02-08T03:18:41.463Z,12.17
2023-02-08T03:21:26.752Z,13.00
2023-02-08T03:23:59.288Z,13.23
2023-02-08T03:26:40.952Z,14.30
2023-02-08T03:29:25.391Z,15.83
2023-02-08T03:31:59.749Z,13.20
2023-02-08T03:34:50.705Z,13.73
2023-02-08T03:37:49.721Z,13.53
2023-02-08T03:40:32.846Z,15.43
2023-02-08T03:43:03.494Z,12.90
2023-02-08T03:45:37.399Z,14.77
2023-02-08T03:48:08.090Z,13.50
2023-02-08T03:50:38.550Z,13.83
2023-02-08T03:53:07.019Z,14.67
2023-02-08T03:55:36.105Z,13.57
2023-02-08T03:58:16.172Z,14.43
2023-02-08T04:00:48.636Z,14.57
2023-02-08T04:03:24.386Z,14.03
2023-02-08T04:05:51.755Z,14.67
2023-02-08T04:08:19.317Z,13.83
2023-02-08T04:10:47.301Z,14.97
2023-02-08T04:13:14.325Z,15.40
2023-02-08T04:15:41.084Z,14.67
2023-02-08T04:18:07.900Z,14.60
2023-02-08T04:20:34.718Z,14.37
2023-02-08T04:23:01.566Z,12.97
2023-02-08T04:25:28.424Z,13.73
2023-02-08T04:27:55.252Z,14.30
2023-02-08T04:30:22.045Z,15.10
2023-02-08T04:32:48.884Z,14.60
2023-02-08T04:35:15.764Z,14.67
2023-02-08T04:37:42.621Z,15.70
2023-02-08T04:40:10.208Z,14.47
2023-02-08T04:42:37.042Z,14.73
2023-02-08T04:45:04.221Z,14.37
2023-02-08T04:47:31.161Z,15.00
2023-02-08T04:49:57.894Z,13.67
2023-02-08T04:52:24.686Z,13.50
2023-02-08T04:54:51.796Z,15.47
2023-02-08T04:57:18.534Z,15.37
2023-02-08T04:59:45.404Z,14.43
2023-02-08T05:02:12.268Z,12.63
2023-02-08T05:04:39.079Z,13.77
2023-02-08T05:07:05.851Z,14.77
2023-02-08T05:09:32.750Z,15.10
2023-02-08T05:11:59.521Z,14.20
2023-02-08T05:14:26.387Z,14.97
2023-02-08T05:16:53.207Z,15.97
2023-02-08T05:19:20.157Z,14.93
2023-02-08T05:21:46.935Z,16.50
2023-02-08T05:24:13.808Z,16.90
2023-02-08T05:26:41.314Z,19.03
2023-02-08T05:29:08.249Z,19.60
2023-02-08T05:31:35.710Z,21.13
2023-02-08T05:34:02.685Z,23.57
2023-02-08T05:36:29.778Z,24.27
2023-02-08T05:38:56.592Z,22.93
2023-02-08T05:41:23.780Z,23.67
2023-02-08T05:43:51.042Z,22.87
2023-02-08T05:46:18.314Z,23.87
2023-02-08T05:48:45.595Z,25.37
2023-02-08T05:51:12.755Z,24.37
2023-02-08T05:53:40.130Z,24.60
2023-02-08T05:56:07.491Z,24.13
2023-02-08T05:58:34.849Z,22.50
2023-02-08T06:01:02.426Z,23.77
2023-02-08T06:03:29.689Z,22.50
2023-02-08T06:05:56.921Z,18.80
2023-02-08T06:08:24.102Z,18.77
2023-02-08T06:10:51.255Z,19.37
2023-02-08T06:13:18.376Z,21.03
2023-02-08T06:15:45.587Z,19.80
2023-02-08T06:18:13.080Z,18.93
2023-02-08T06:20:40.608Z,20.73
2023-02-08T06:23:07.981Z,19.33
2023-02-08T06:25:35.112Z,21.03
2023-02-08T06:28:03.120Z,22.00
2023-02-08T06:30:30.348Z,22.67
2023-02-08T06:32:57.723Z,22.10
2023-02-08T06:35:24.893Z,21.90
2023-02-08T06:37:52.168Z,22.90
2023-02-08T06:40:19.383Z,23.87
2023-02-08T06:42:47.731Z,23.87
2023-02-08T06:45:15.051Z,24.07
2023-02-08T06:47:42.274Z,24.60
2023-02-08T06:50:10.008Z,25.33
2023-02-08T06:52:37.313Z,27.07
2023-02-08T06:55:04.840Z,27.73
2023-02-08T06:57:32.048Z,25.67
2023-02-08T06:59:59.244Z,28.97
2023-02-08T07:02:26.375Z,27.97
2023-02-08T07:04:53.667Z,27.60
2023-02-08T07:07:20.840Z,26.17
2023-02-08T07:09:48.116Z,27.17
2023-02-08T07:12:15.324Z,27.23
2023-02-08T07:14:43.222Z,27.43
2023-02-08T07:17:10.830Z,27.63
2023-02-08T07:19:38.086Z,28.63
2023-02-08T07:22:08.339Z,28.03
2023-02-08T07:24:36.607Z,27.37
2023-02-08T07:27:04.528Z,29.67
2023-02-08T07:29:34.202Z,28.57
2023-02-08T07:32:02.126Z,29.03
2023-02-08T07:34:30.322Z,28.70
2023-02-08T07:36:57.590Z,29.93
2023-02-08T07:39:25.142Z,29.93
2023-02-08T07:41:52.297Z,27.80
2023-02-08T07:44:19.784Z,28.33
2023-02-08T07:46:47.086Z,25.50
2023-02-08T07:49:14.262Z,27.07
2023-02-08T07:51:41.477Z,25.20
2023-02-08T07:54:08.861Z,25.90
2023-02-08T07:56:35.982Z,26.40
2023-02-08T07:59:03.261Z,24.03
2023-02-08T08:01:30.501Z,23.03
2023-02-08T08:04:00.158Z,21.87
2023-02-08T08:06:27.600Z,22.27
2023-02-08T08:08:54.765Z,21.30
2023-02-08T08:11:22.400Z,20.93
2023-02-08T08:13:49.686Z,19.87
2023-02-08T08:16:16.920Z,20.73
2023-02-08T08:18:44.170Z,21.10
2023-02-08T08:21:11.642Z,18.80
2023-02-08T08:23:39.082Z,18.67
2023-02-08T08:26:11.095Z,18.40
2023-02-08T08:28:38.729Z,18.00
2023-02-08T08:31:10.156Z,17.50
2023-02-08T08:33:37.497Z,15.87
2023-02-08T08:36:04.728Z,17.03
2023-02-08T08:38:31.903Z,15.63
2023-02-08T08:40:59.199Z,18.60
2023-02-08T08:43:26.356Z,18.10
2023-02-08T08:45:53.571Z,18.03
2023-02-08T08:48:21.022Z,20.17
2023-02-08T08:50:51.372Z,15.60
2023-02-08T08:53:19.181Z,18.37
2023-02-08T08:55:46.416Z,12.80
2023-02-08T08:58:13.593Z,11.87
2023-02-08T09:00:41.037Z,9.77
2023-02-08T09:03:08.385Z,8.70
2023-02-08T09:05:36.144Z,7.93
2023-02-08T09:08:03.562Z,6.93
2023-02-08T09:10:31.091Z,6.57
2023-02-08T09:12:59.132Z,7.43
2023-02-08T09:15:26.373Z,7.33
2023-02-08T09:17:53.600Z,6.77
2023-02-08T09:20:21.657Z,6.70
2023-02-08T09:22:48.872Z,6.03
2023-02-08T09:25:16.522Z,7.47
2023-02-08T09:27:43.817Z,7.17
2023-02-08T09:30:11.472Z,7.17
2023-02-08T09:32:40.047Z,6.63
2023-02-08T09:35:08.280Z,7.00
2023-02-08T09:37:35.834Z,13.23
2023-02-08T09:40:03.032Z,7.20
2023-02-08T09:42:36.003Z,6.00
2023-02-08T09:45:22.014Z,6.53
2023-02-08T09:47:55.268Z,5.50
2023-02-08T09:50:45.475Z,6.17
2023-02-08T09:53:12.621Z,6.30
2023-02-08T09:55:50.991Z,6.73
2023-02-08T09:58:29.897Z,5.93
2023-02-08T10:00:57.581Z,5.40
2023-02-08T10:03:38.419Z,5.17
2023-02-08T10:06:10.706Z,6.03
2023-02-08T10:08:38.170Z,5.30
2023-02-08T10:11:31.843Z,5.40
2023-02-08T10:14:21.797Z,5.20
2023-02-08T10:17:01.590Z,4.40
2023-02-08T10:19:28.722Z,5.83
2023-02-08T10:22:16.199Z,5.87
2023-02-08T10:24:52.196Z,5.67
2023-02-08T10:27:41.324Z,5.33
2023-02-08T10:30:17.503Z,5.80
2023-02-08T10:32:51.385Z,6.00
2023-02-08T10:35:37.399Z,4.73
2023-02-08T10:38:16.303Z,4.90
2023-02-08T10:40:45.136Z,5.88
2023-02-08T10:43:24.856Z,5.17
2023-02-08T10:46:00.627Z,4.90
2023-02-08T10:48:44.497Z,5.30
2023-02-08T10:51:18.733Z,5.53
2023-02-08T10:53:46.862Z,5.30
2023-02-08T10:56:34.356Z,5.70
2023-02-08T10:59:02.493Z,5.23
2023-02-08T11:01:29.876Z,4.47
2023-02-08T11:04:05.811Z,5.10
2023-02-08T11:06:33.032Z,5.13
2023-02-08T11:08:59.852Z,5.27
2023-02-08T11:11:29.600Z,4.83
2023-02-08T11:14:07.778Z,4.70
2023-02-08T11:16:35.164Z,5.30
2023-02-08T11:19:03.161Z,5.27
2023-02-08T11:21:33.329Z,5.13
2023-02-08T11:24:01.788Z,4.93
2023-02-08T11:26:31.357Z,4.80
2023-02-08T11:29:08.406Z,6.28
2023-02-08T11:31:36.735Z,4.72
2023-02-08T11:34:11.490Z,5.22
2023-02-08T11:36:46.901Z,4.03
2023-02-08T11:39:39.776Z,4.18
2023-02-08T11:42:08.003Z,4.53
2023-02-08T11:44:41.602Z,3.85
2023-02-08T11:47:10.552Z,3.72
2023-02-08T11:49:43.182Z,4.28
2023-02-08T11:52:23.564Z,3.70
2023-02-08T11:54:50.394Z,4.05
2023-02-08T11:57:22.183Z,3.72
2023-02-08T11:59:51.920Z,3.28
2023-02-08T12:02:26.136Z,3.78
2023-02-08T12:04:52.952Z,3.95
2023-02-08T12:07:47.423Z,3.65
2023-02-08T12:10:23.350Z,3.35
2023-02-08T12:13:19.063Z,3.20
2023-02-08T12:15:58.759Z,3.05
2023-02-08T12:18:40.783Z,3.42
2023-02-08T12:21:27.345Z,3.03
2023-02-08T12:24:10.300Z,2.75
2023-02-08T12:26:39.827Z,2.85
2023-02-08T12:29:12.604Z,3.25
2023-02-08T12:32:04.606Z,3.20
2023-02-08T12:34:48.761Z,3.60
2023-02-08T12:37:39.725Z,3.40
2023-02-08T12:40:30.838Z,3.00
2023-02-08T12:43:13.850Z,3.47
2023-02-08T12:46:11.394Z,3.83
2023-02-08T12:48:57.580Z,3.75
2023-02-08T12:51:42.836Z,3.70
2023-02-08T12:54:18.538Z,3.20
2023-02-08T12:57:00.276Z,3.38
2023-02-08T12:59:33.177Z,3.72
2023-02-08T13:02:04.917Z,4.35
2023-02-08T13:04:46.168Z,3.67
2023-02-08T13:07:25.663Z,2.80
2023-02-08T13:09:59.803Z,3.10
2023-02-08T13:12:38.257Z,3.45
2023-02-08T13:15:28.424Z,2.95
2023-02-08T13:17:59.190Z,3.35
2023-02-08T13:20:49.996Z,2.83
2023-02-08T13:23:29.642Z,2.92
2023-02-08T13:26:00.867Z,3.22
2023-02-08T13:28:28.429Z,2.60
2023-02-08T13:30:58.324Z,12.70
2023-02-08T13:33:49.252Z,7.20
2023-02-08T13:36:37.776Z,2.70
2023-02-08T13:39:29.314Z,2.63
2023-02-08T13:41:57.225Z,3.28
2023-02-08T13:44:33.087Z,2.85
2023-02-08T13:47:00.103Z,2.85
2023-02-08T13:49:50.853Z,2.58
2023-02-08T13:52:48.125Z,3.15
2023-02-08T13:55:41.511Z,2.70
2023-02-08T13:58:14.662Z,2.50
2023-02-08T14:00:53.810Z,4.50
2023-02-08T14:03:29.194Z,3.00
2023-02-08T14:06:04.442Z,3.20
2023-02-08T14:08:49.340Z,2.70
2023-02-08T14:11:28.133Z,2.50
2023-02-08T14:14:00.885Z,2.60
2023-02-08T14:16:38.905Z,2.65
2023-02-08T14:19:27.317Z,3.13
2023-02-08T14:22:00.014Z,4.85
2023-02-08T14:24:28.646Z,2.63
2023-02-08T14:27:17.636Z,2.53
2023-02-08T14:29:44.952Z,2.85
2023-02-08T14:32:26.968Z,2.85
2023-02-08T14:35:04.516Z,2.58
2023-02-08T14:37:33.859Z,2.20
2023-02-08T14:40:24.647Z,2.58
2023-02-08T14:43:04.638Z,2.78
2023-02-08T14:45:37.230Z,2.58
2023-02-08T14:48:44.323Z,2.70
2023-02-08T14:51:11.415Z,2.95
2023-02-08T14:53:50.179Z,2.42
2023-02-08T14:56:20.076Z,2.58
2023-02-08T14:58:52.164Z,2.85
2023-02-08T15:01:45.012Z,3.28
2023-02-08T15:04:13.959Z,3.40
2023-02-08T15:07:11.089Z,2.80
2023-02-08T15:09:41.318Z,2.80
2023-02-08T15:12:40.828Z,3.08
2023-02-08T15:15:32.524Z,3.17
2023-02-08T15:18:01.441Z,2.88
2023-02-08T15:20:30.285Z,2.65
2023-02-08T15:23:00.663Z,3.60
2023-02-08T15:25:29.975Z,2.67
2023-02-08T15:28:03.133Z,2.40
2023-02-08T15:30:37.404Z,2.80
2023-02-08T15:33:09.364Z,2.57
2023-02-08T15:35:37.242Z,2.70
2023-02-08T15:38:08.212Z,2.90
2023-02-08T15:40:35.930Z,2.70
2023-02-08T15:43:09.316Z,2.53
2023-02-08T15:45:36.557Z,2.93
2023-02-08T15:48:05.601Z,2.60
2023-02-08T15:50:35.861Z,2.67
2023-02-08T15:53:06.612Z,3.03
2023-02-08T15:55:39.699Z,3.90
2023-02-08T15:58:35.487Z,3.30
2023-02-08T16:01:05.206Z,4.37
2023-02-08T16:03:33.172Z,3.23
2023-02-08T16:06:02.857Z,3.37
2023-02-08T16:08:35.732Z,3.30
2023-02-08T16:11:08.791Z,3.57
2023-02-08T16:13:37.542Z,3.03
2023-02-08T16:16:16.705Z,3.87
2023-02-08T16:18:58.530Z,3.37
2023-02-08T16:21:25.328Z,3.83
2023-02-08T16:23:53.687Z,8.40
2023-02-08T16:26:28.697Z,6.03
2023-02-08T16:29:00.763Z,4.30
2023-02-08T16:31:30.598Z,4.30
2023-02-08T16:34:00.330Z,8.43
2023-02-08T16:36:33.327Z,9.73
2023-02-08T16:39:12.877Z,8.77
2023-02-08T16:42:15.410Z,5.47
2023-02-08T16:45:17.923Z,4.70
2023-02-08T16:47:54.554Z,5.23
2023-02-08T16:50:25.754Z,6.10
2023-02-08T16:53:11.808Z,6.07
2023-02-08T16:55:39.051Z,8.10
2023-02-08T16:58:06.211Z,9.13
2023-02-08T17:00:35.255Z,7.67
2023-02-08T17:03:02.631Z,8.23
2023-02-08T17:05:36.049Z,8.90
2023-02-08T17:08:07.132Z,8.53
2023-02-08T17:10:34.361Z,7.57
2023-02-08T17:13:20.801Z,7.53
2023-02-08T17:15:49.478Z,9.33
2023-02-08T17:18:16.565Z,10.83
2023-02-08T17:20:43.921Z,8.63
2023-02-08T17:23:11.616Z,9.00
2023-02-08T17:25:38.976Z,7.80
2023-02-08T17:28:07.905Z,7.73
2023-02-08T17:30:37.139Z,6.30
2023-02-08T17:33:06.649Z,6.23
2023-02-08T17:35:34.214Z,6.53
2023-02-08T17:38:01.015Z,6.87
2023-02-08T17:40:32.413Z,6.20
2023-02-08T17:43:00.240Z,7.07
2023-02-08T17:45:28.346Z,5.53
2023-02-08T17:47:56.558Z,7.20
2023-02-08T17:50:23.695Z,11.87
2023-02-08T17:52:51.681Z,5.80
2023-02-08T17:55:19.166Z,5.13
2023-02-08T17:57:46.696Z,7.23
2023-02-08T18:00:22.396Z,9.87
2023-02-08T18:02:51.186Z,3.80
2023-02-08T18:05:20.954Z,5.10
2023-02-08T18:07:47.800Z,4.90
2023-02-08T18:10:15.717Z,5.07
2023-02-08T18:12:43.289Z,4.27
2023-02-08T18:15:17.372Z,3.73
2023-02-08T18:17:45.068Z,4.30
2023-02-08T18:20:16.423Z,5.20
2023-02-08T18:22:44.347Z,5.10
2023-02-08T18:25:12.823Z,5.33
2023-02-08T18:27:40.182Z,6.20
2023-02-08T18:30:07.561Z,5.60
2023-02-08T18:32:34.782Z,6.70
2023-02-08T18:35:04.024Z,6.30
2023-02-08T18:37:33.257Z,4.87
2023-02-08T18:40:00.831Z,5.60
2023-02-08T18:42:28.214Z,5.40
2023-02-08T18:44:55.558Z,5.47
2023-02-08T18:47:22.825Z,4.93
2023-02-08T18:49:54.381Z,5.57
2023-02-08T18:52:22.059Z,5.67
2023-02-08T18:54:49.006Z,5.63
2023-02-08T18:57:16.081Z,5.77
2023-02-08T18:59:43.006Z,6.30
2023-02-08T19:02:16.369Z,5.20
2023-02-08T19:04:43.374Z,5.20
2023-02-08T19:07:10.380Z,5.33
2023-02-08T19:09:38.306Z,4.83
2023-02-08T19:12:05.727Z,5.50
2023-02-08T19:14:32.597Z,5.43
2023-02-08T19:17:00.024Z,6.77
2023-02-08T19:19:27.450Z,6.30
2023-02-08T19:21:54.673Z,5.47
2023-02-08T19:24:21.658Z,6.53
2023-02-08T19:26:48.637Z,6.43
2023-02-08T19:29:17.490Z,6.17
2023-02-08T19:31:45.340Z,5.70
2023-02-08T19:34:13.056Z,5.70
2023-02-08T19:36:44.631Z,5.57
2023-02-08T19:39:14.609Z,5.60
2023-02-08T19:41:41.847Z,6.37
2023-02-08T19:44:09.650Z,5.67
2023-02-08T19:46:40.253Z,5.97
2023-02-08T19:49:07.779Z,5.17
2023-02-08T19:51:37.077Z,4.90
2023-02-08T19:54:07.125Z,4.50
2023-02-08T19:56:34.587Z,5.77
2023-02-08T19:59:04.041Z,5.77
2023-02-08T20:01:33.414Z,5.40
2023-02-08T20:04:01.633Z,5.27
2023-02-08T20:06:31.173Z,4.83
2023-02-08T20:08:58.469Z,6.60
2023-02-08T20:11:27.293Z,5.00
2023-02-08T20:13:56.350Z,4.70
2023-02-08T20:16:24.006Z,5.90
2023-02-08T20:18:51.213Z,5.67
2023-02-08T20:21:18.805Z,5.93
2023-02-08T20:23:46.458Z,4.90
2023-02-08T20:26:23.363Z,5.27
2023-02-08T20:28:53.300Z,5.67
2023-02-08T20:31:23.373Z,5.60
2023-02-08T20:33:50.461Z,4.57
2023-02-08T20:36:25.735Z,5.77
2023-02-08T20:38:54.150Z,5.40
2023-02-08T20:41:22.376Z,5.10
2023-02-08T20:43:49.574Z,6.33
2023-02-08T20:46:24.657Z,5.97
2023-02-08T20:48:52.345Z,5.20
2023-02-08T20:51:21.286Z,4.90
2023-02-08T20:53:49.238Z,5.67
2023-02-08T20:56:18.971Z,5.67
2023-02-08T20:58:47.542Z,6.20
2023-02-08T21:01:16.683Z,6.70
2023-02-08T21:03:44.312Z,6.10
2023-02-08T21:06:21.756Z,7.07
2023-02-08T21:08:51.727Z,5.53
2023-02-08T21:11:19.927Z,6.60
2023-02-08T21:13:47.739Z,6.37
2023-02-08T21:16:15.501Z,6.43
2023-02-08T21:18:42.790Z,6.67
2023-02-08T21:21:10.784Z,6.47
2023-02-08T21:23:38.446Z,6.90
2023-02-08T21:26:07.003Z,6.30
2023-02-08T21:28:34.465Z,6.00
2023-02-08T21:31:05.987Z,6.13
2023-02-08T21:33:33.395Z,6.27
2023-02-08T21:36:10.445Z,6.27
2023-02-08T21:38:37.769Z,6.10
2023-02-08T21:41:08.688Z,6.27
2023-02-08T21:43:37.397Z,6.47
2023-02-08T21:46:05.331Z,5.93
2023-02-08T21:48:52.966Z,6.07
2023-02-08T21:51:39.683Z,6.33
2023-02-08T21:54:42.666Z,6.60
2023-02-08T21:57:12.602Z,5.60
2023-02-08T21:59:40.249Z,5.90
2023-02-08T22:02:08.844Z,6.50
2023-02-08T22:04:36.993Z,5.97
2023-02-08T22:07:04.755Z,5.70
2023-02-08T22:09:32.013Z,5.87
2023-02-08T22:11:59.399Z,5.97
2023-02-08T22:14:26.726Z,6.80
2023-02-08T22:16:54.001Z,5.63
2023-02-08T22:19:21.261Z,6.40
2023-02-08T22:21:48.508Z,6.10
2023-02-08T22:24:15.734Z,7.10
2023-02-08T22:26:43.971Z,6.10
2023-02-08T22:29:11.291Z,7.00
2023-02-08T22:31:38.676Z,6.50
2023-02-08T22:34:06.000Z,6.00
2023-02-08T22:36:33.296Z,6.03
2023-02-08T22:39:00.421Z,5.73
2023-02-08T22:41:27.683Z,21.13
2023-02-08T22:43:55.068Z,6.87
2023-02-08T22:46:22.359Z,6.33
2023-02-08T22:48:49.622Z,6.13
2023-02-08T22:51:18.675Z,5.90
2023-02-08T22:53:45.880Z,5.93
2023-02-08T22:56:16.883Z,7.03
2023-02-08T22:58:44.375Z,6.90
2023-02-08T23:01:12.238Z,5.60
2023-02-08T23:03:40.008Z,5.47
2023-02-08T23:06:08.136Z,5.47
2023-02-08T23:08:35.554Z,5.90
2023-02-08T23:11:03.708Z,5.43
2023-02-08T23:13:31.116Z,5.13
2023-02-08T23:15:58.553Z,5.70
2023-02-08T23:18:25.933Z,5.80
2023-02-08T23:20:54.539Z,6.10
2023-02-08T23:23:21.749Z,5.80
2023-02-08T23:25:48.964Z,5.93
2023-02-08T23:28:16.475Z,5.50
2023-02-08T23:30:44.669Z,5.83
2023-02-08T23:33:12.058Z,6.67
2023-02-08T23:35:42.205Z,5.20
2023-02-08T23:38:09.997Z,6.20
2023-02-08T23:40:37.254Z,6.07
2023-02-08T23:43:04.626Z,6.90
2023-02-08T23:45:32.028Z,5.97
2023-02-08T23:47:59.216Z,8.50
2023-02-08T23:50:27.029Z,7.17
2023-02-08T23:52:56.587Z,6.17
2023-02-08T23:55:24.403Z,6.03
2023-02-08T23:57:51.561Z,6.23
